Accueil
METAR-TAF:

METAR-TAF

Aéroports :

Aéroport d'Aurillac

Aurillac, France

latitude: 44-53N, longitude: 002-25E, altitude: 639 m

Observation

Le bulletin a été fait il y a 20 minutes, à 09:00 UTC
Vent 11 kt de est
Température 6°C
Humidité 70%
Pression 1033 hPa
Visibilité 10 km ou plus

METAR: LFLW 210900Z AUTO 09011KT 9999 ////// 06/01 Q1033

Heure: 10:20 (09:20 UTC)

Prévision

Le bulletin a été fait il y a 4 heures et 20 minutes, à 05:00 UTC
Prévision valable du 21 à 06 UTC au 21 à 15 UTC
Vent 8 kt de est
Visibilité 10 km ou plus
Nuages fragmentés à une hauteur de 3000 ft

TAF: LFLW 210500Z 2106/2115 08008KT 9999 BKN030

Observations et prévisions météorologiques de plus de 4000 aéroports (messages METAR et TAF).

Les stations disponibles sont représentées par des disques jaunes et rouges sur la carte.

Passer la souris dessus pour voir le nom de la station.

Cliquer dessus pour voir les observations et prévisions météorologiques.

Pour changer de carte: cliquez sur les boutons verts avec une croix noire pour zoomer, sur le bouton vert avec un tiret pour effectuer un zoom arrière, ou sur les flèches vertes pour les cartes adjacentes.


METAR-TAF: